sensor_id;sensor_type;location;lat;lon;timestamp;pressure;altitude;pressure_sealevel;temperature
73894;BMP280;62699;50.534;12.784;2022-09-09T02:10:28;96140.81;;;12.25
73894;BMP280;62699;50.534;12.784;2022-09-09T02:15:57;96130.31;;;12.22
73894;BMP280;62699;50.534;12.784;2022-09-09T02:21:19;96135.91;;;12.48
73894;BMP280;62699;50.534;12.784;2022-09-09T02:26:41;96137.88;;;12.48
73894;BMP280;62699;50.534;12.784;2022-09-09T02:32:05;96142.78;;;12.49
73894;BMP280;62699;50.534;12.784;2022-09-09T02:37:30;96141.22;;;12.54
73894;BMP280;62699;50.534;12.784;2022-09-09T02:42:50;96138.81;;;12.50
73894;BMP280;62699;50.534;12.784;2022-09-09T02:48:26;96132.66;;;12.31
73894;BMP280;62699;50.534;12.784;2022-09-09T02:59:18;96129.69;;;12.10
73894;BMP280;62699;50.534;12.784;2022-09-09T03:04:38;96117.84;;;12.19
73894;BMP280;62699;50.534;12.784;2022-09-09T03:09:57;96124.88;;;12.27
73894;BMP280;62699;50.534;12.784;2022-09-09T03:15:18;96133.69;;;12.28
73894;BMP280;62699;50.534;12.784;2022-09-09T03:20:37;96129.44;;;12.32
73894;BMP280;62699;50.534;12.784;2022-09-09T03:25:57;96131.47;;;12.08
73894;BMP280;62699;50.534;12.784;2022-09-09T03:31:17;96130.94;;;12.09
73894;BMP280;62699;50.534;12.784;2022-09-09T03:36:39;96121.84;;;12.12
73894;BMP280;62699;50.534;12.784;2022-09-09T03:42:00;96133.81;;;12.17
73894;BMP280;62699;50.534;12.784;2022-09-09T03:47:23;96128.13;;;12.20
73894;BMP280;62699;50.534;12.784;2022-09-09T03:52:42;96124.28;;;12.10
73894;BMP280;62699;50.534;12.784;2022-09-09T03:58:01;96121.78;;;11.93
73894;BMP280;62699;50.534;12.784;2022-09-09T04:03:20;96125.03;;;12.11
73894;BMP280;62699;50.534;12.784;2022-09-09T04:08:39;96116.59;;;12.20
73894;BMP280;62699;50.534;12.784;2022-09-09T04:13:58;96119.13;;;12.12
73894;BMP280;62699;50.534;12.784;2022-09-09T04:19:18;96116.91;;;12.16
73894;BMP280;62699;50.534;12.784;2022-09-09T04:24:37;96114.81;;;12.04
73894;BMP280;62699;50.534;12.784;2022-09-09T04:29:57;96112.00;;;11.90
73894;BMP280;62699;50.534;12.784;2022-09-09T04:35:17;96127.81;;;12.05
73894;BMP280;62699;50.534;12.784;2022-09-09T04:40:38;96125.38;;;12.26
73894;BMP280;62699;50.534;12.784;2022-09-09T04:46:00;96128.16;;;12.39
73894;BMP280;62699;50.534;12.784;2022-09-09T04:51:20;96134.72;;;12.44
73894;BMP280;62699;50.534;12.784;2022-09-09T04:56:39;96141.22;;;12.54
73894;BMP280;62699;50.534;12.784;2022-09-09T05:02:01;96140.19;;;12.38
73894;BMP280;62699;50.534;12.784;2022-09-09T05:07:22;96133.03;;;12.22
73894;BMP280;62699;50.534;12.784;2022-09-09T05:12:42;96133.66;;;12.09
73894;BMP280;62699;50.534;12.784;2022-09-09T05:18:01;96133.44;;;12.07
73894;BMP280;62699;50.534;12.784;2022-09-09T05:23:22;96122.81;;;12.15
73894;BMP280;62699;50.534;12.784;2022-09-09T05:28:41;96133.47;;;12.26
73894;BMP280;62699;50.534;12.784;2022-09-09T05:34:01;96142.69;;;12.55
73894;BMP280;62699;50.534;12.784;2022-09-09T05:39:20;96140.34;;;12.83
73894;BMP280;62699;50.534;12.784;2022-09-09T05:44:40;96139.59;;;13.01
73894;BMP280;62699;50.534;12.784;2022-09-09T05:50:01;96139.84;;;13.35
73894;BMP280;62699;50.534;12.784;2022-09-09T05:55:21;96140.50;;;13.41
73894;BMP280;62699;50.534;12.784;2022-09-09T06:00:39;96150.91;;;13.63
73894;BMP280;62699;50.534;12.784;2022-09-09T06:06:00;96150.81;;;13.82
73894;BMP280;62699;50.534;12.784;2022-09-09T06:11:30;96142.72;;;13.95
73894;BMP280;62699;50.534;12.784;2022-09-09T06:16:55;96147.41;;;14.21
73894;BMP280;62699;50.534;12.784;2022-09-09T06:22:15;96142.84;;;14.29
73894;BMP280;62699;50.534;12.784;2022-09-09T06:27:36;96158.88;;;17.38
73894;BMP280;62699;50.534;12.784;2022-09-09T06:32:55;96151.94;;;21.87
73894;BMP280;62699;50.534;12.784;2022-09-09T06:38:15;96140.78;;;22.94
73894;BMP280;62699;50.534;12.784;2022-09-09T06:43:34;96144.84;;;21.74
73894;BMP280;62699;50.534;12.784;2022-09-09T06:48:55;96140.66;;;21.54
73894;BMP280;62699;50.534;12.784;2022-09-09T06:54:14;96141.41;;;19.92
73894;BMP280;62699;50.534;12.784;2022-09-09T06:59:34;96148.13;;;18.33
73894;BMP280;62699;50.534;12.784;2022-09-09T07:04:53;96153.78;;;17.65
73894;BMP280;62699;50.534;12.784;2022-09-09T07:10:13;96150.16;;;17.55
73894;BMP280;62699;50.534;12.784;2022-09-09T07:15:32;96150.88;;;17.40
73894;BMP280;62699;50.534;12.784;2022-09-09T07:20:57;96148.72;;;17.23
73894;BMP280;62699;50.534;12.784;2022-09-09T07:26:18;96169.38;;;17.04
73894;BMP280;62699;50.534;12.784;2022-09-09T07:31:41;96161.00;;;16.87
73894;BMP280;62699;50.534;12.784;2022-09-09T07:37:01;96166.13;;;17.05
73894;BMP280;62699;50.534;12.784;2022-09-09T07:42:43;96171.56;;;17.05
73894;BMP280;62699;50.534;12.784;2022-09-09T07:48:03;96170.09;;;17.04
73894;BMP280;62699;50.534;12.784;2022-09-09T07:53:23;96178.81;;;17.18
73894;BMP280;62699;50.534;12.784;2022-09-09T07:58:45;96183.19;;;17.66
73894;BMP280;62699;50.534;12.784;2022-09-09T08:04:12;96190.84;;;18.70
73894;BMP280;62699;50.534;12.784;2022-09-09T08:09:33;96182.56;;;20.28
73894;BMP280;62699;50.534;12.784;2022-09-09T08:14:53;96175.00;;;22.12
73894;BMP280;62699;50.534;12.784;2022-09-09T08:20:12;96170.78;;;21.54
73894;BMP280;62699;50.534;12.784;2022-09-09T08:25:32;96179.66;;;21.16
73894;BMP280;62699;50.534;12.784;2022-09-09T08:30:53;96177.03;;;21.83
73894;BMP280;62699;50.534;12.784;2022-09-09T08:36:18;96190.53;;;22.88
73894;BMP280;62699;50.534;12.784;2022-09-09T08:53:42;96200.50;;;21.48
73894;BMP280;62699;50.534;12.784;2022-09-09T08:59:03;96188.44;;;21.89
73894;BMP280;62699;50.534;12.784;2022-09-09T09:10:15;96182.88;;;20.59
73894;BMP280;62699;50.534;12.784;2022-09-09T09:15:42;96188.88;;;20.75
73894;BMP280;62699;50.534;12.784;2022-09-09T09:21:16;96189.97;;;20.98
73894;BMP280;62699;50.534;12.784;2022-09-09T09:26:39;96184.66;;;21.00
73894;BMP280;62699;50.534;12.784;2022-09-09T09:32:02;96185.72;;;21.14
73894;BMP280;62699;50.534;12.784;2022-09-09T09:37:29;96184.16;;;21.21
73894;BMP280;62699;50.534;12.784;2022-09-09T09:42:52;96189.88;;;21.90
73894;BMP280;62699;50.534;12.784;2022-09-09T09:48:13;96190.97;;;22.85
73894;BMP280;62699;50.534;12.784;2022-09-09T09:53:35;96176.41;;;22.82
73894;BMP280;62699;50.534;12.784;2022-09-09T09:58:55;96177.31;;;22.66
73894;BMP280;62699;50.534;12.784;2022-09-09T10:04:18;96168.16;;;23.13
73894;BMP280;62699;50.534;12.784;2022-09-09T10:09:38;96172.13;;;23.31
73894;BMP280;62699;50.534;12.784;2022-09-09T10:15:36;96172.03;;;23.41
73894;BMP280;62699;50.534;12.784;2022-09-09T10:43:20;96159.41;;;23.26
73894;BMP280;62699;50.534;12.784;2022-09-09T10:54:36;96180.56;;;23.14
73894;BMP280;62699;50.534;12.784;2022-09-09T11:00:05;96166.88;;;22.74
73894;BMP280;62699;50.534;12.784;2022-09-09T11:05:44;96168.28;;;23.15
73894;BMP280;62699;50.534;12.784;2022-09-09T11:16:30;96158.75;;;23.37
73894;BMP280;62699;50.534;12.784;2022-09-09T11:21:52;96164.09;;;23.78
73894;BMP280;62699;50.534;12.784;2022-09-09T11:27:20;96159.72;;;23.21
73894;BMP280;62699;50.534;12.784;2022-09-09T11:43:55;96157.38;;;23.48
73894;BMP280;62699;50.534;12.784;2022-09-09T11:49:43;96168.31;;;23.90
73894;BMP280;62699;50.534;12.784;2022-09-09T11:55:25;96161.25;;;23.55
73894;BMP280;62699;50.534;12.784;2022-09-09T12:00:51;96160.06;;;24.23
73894;BMP280;62699;50.534;12.784;2022-09-09T12:06:30;96151.56;;;23.86
73894;BMP280;62699;50.534;12.784;2022-09-09T12:11:52;96148.69;;;24.40
73894;BMP280;62699;50.534;12.784;2022-09-09T12:28:18;96128.94;;;24.79
73894;BMP280;62699;50.534;12.784;2022-09-09T12:34:16;96116.69;;;25.53
73894;BMP280;62699;50.534;12.784;2022-09-09T12:39:54;96114.00;;;25.30
73894;BMP280;62699;50.534;12.784;2022-09-09T12:45:21;96112.09;;;24.49
73894;BMP280;62699;50.534;12.784;2022-09-09T12:50:46;96125.94;;;24.05
73894;BMP280;62699;50.534;12.784;2022-09-09T12:56:07;96120.28;;;26.74
73894;BMP280;62699;50.534;12.784;2022-09-09T13:01:31;96125.25;;;27.92
73894;BMP280;62699;50.534;12.784;2022-09-09T13:06:51;96129.56;;;27.51
73894;BMP280;62699;50.534;12.784;2022-09-09T13:12:18;96150.63;;;27.28
73894;BMP280;62699;50.534;12.784;2022-09-09T13:17:38;96146.28;;;26.83
73894;BMP280;62699;50.534;12.784;2022-09-09T13:23:00;96156.75;;;26.32
73894;BMP280;62699;50.534;12.784;2022-09-09T13:28:23;96146.91;;;25.03
73894;BMP280;62699;50.534;12.784;2022-09-09T13:33:43;96153.84;;;25.04
73894;BMP280;62699;50.534;12.784;2022-09-09T13:39:03;96147.47;;;25.50
73894;BMP280;62699;50.534;12.784;2022-09-09T13:44:25;96159.91;;;26.13
73894;BMP280;62699;50.534;12.784;2022-09-09T13:49:46;96149.34;;;24.06
73894;BMP280;62699;50.534;12.784;2022-09-09T13:55:08;96132.72;;;23.38
73894;BMP280;62699;50.534;12.784;2022-09-09T14:01:00;96119.47;;;22.02
73894;BMP280;62699;50.534;12.784;2022-09-09T14:06:21;96114.34;;;22.68
73894;BMP280;62699;50.534;12.784;2022-09-09T14:11:41;96111.69;;;21.89
73894;BMP280;62699;50.534;12.784;2022-09-09T14:17:01;96100.13;;;21.33
73894;BMP280;62699;50.534;12.784;2022-09-09T14:22:20;96108.56;;;20.89
73894;BMP280;62699;50.534;12.784;2022-09-09T14:27:41;96096.44;;;20.46
73894;BMP280;62699;50.534;12.784;2022-09-09T14:33:01;96099.78;;;20.54
73894;BMP280;62699;50.534;12.784;2022-09-09T14:38:21;96110.63;;;20.62
73894;BMP280;62699;50.534;12.784;2022-09-09T14:43:40;96107.03;;;19.89
73894;BMP280;62699;50.534;12.784;2022-09-09T14:49:00;96101.25;;;19.85
73894;BMP280;62699;50.534;12.784;2022-09-09T14:54:19;96100.38;;;20.99
73894;BMP280;62699;50.534;12.784;2022-09-09T14:59:40;96122.78;;;22.01
73894;BMP280;62699;50.534;12.784;2022-09-09T15:04:59;96140.75;;;22.33
73894;BMP280;62699;50.534;12.784;2022-09-09T15:10:19;96149.59;;;22.62
73894;BMP280;62699;50.534;12.784;2022-09-09T15:15:37;96149.03;;;22.54
73894;BMP280;62699;50.534;12.784;2022-09-09T15:20:57;96152.34;;;22.12
73894;BMP280;62699;50.534;12.784;2022-09-09T15:26:17;96157.84;;;21.64
73894;BMP280;62699;50.534;12.784;2022-09-09T15:31:36;96164.00;;;21.36
73894;BMP280;62699;50.534;12.784;2022-09-09T15:36:55;96158.38;;;21.53
73894;BMP280;62699;50.534;12.784;2022-09-09T15:42:14;96163.63;;;21.12
73894;BMP280;62699;50.534;12.784;2022-09-09T15:47:33;96173.91;;;20.49
73894;BMP280;62699;50.534;12.784;2022-09-09T15:52:53;96182.09;;;19.29
73894;BMP280;62699;50.534;12.784;2022-09-09T15:58:12;96185.19;;;18.76
73894;BMP280;62699;50.534;12.784;2022-09-09T16:03:35;96186.44;;;17.72
73894;BMP280;62699;50.534;12.784;2022-09-09T16:08:58;96166.47;;;17.17
73894;BMP280;62699;50.534;12.784;2022-09-09T16:14:19;96171.19;;;17.01
73894;BMP280;62699;50.534;12.784;2022-09-09T16:19:38;96178.09;;;17.17
73894;BMP280;62699;50.534;12.784;2022-09-09T16:24:58;96182.63;;;17.45
73894;BMP280;62699;50.534;12.784;2022-09-09T16:30:17;96191.16;;;17.34
73894;BMP280;62699;50.534;12.784;2022-09-09T16:35:37;96177.03;;;17.43
73894;BMP280;62699;50.534;12.784;2022-09-09T16:41:00;96172.44;;;17.08
73894;BMP280;62699;50.534;12.784;2022-09-09T16:46:21;96159.94;;;17.20
73894;BMP280;62699;50.534;12.784;2022-09-09T16:51:43;96141.75;;;16.69
73894;BMP280;62699;50.534;12.784;2022-09-09T16:57:03;96143.81;;;17.52
73894;BMP280;62699;50.534;12.784;2022-09-09T17:02:22;96142.16;;;17.64
73894;BMP280;62699;50.534;12.784;2022-09-09T17:07:43;96152.69;;;17.60
73894;BMP280;62699;50.534;12.784;2022-09-09T17:13:02;96155.09;;;18.11
73894;BMP280;62699;50.534;12.784;2022-09-09T17:18:26;96155.22;;;18.68
73894;BMP280;62699;50.534;12.784;2022-09-09T17:23:47;96160.44;;;18.42
73894;BMP280;62699;50.534;12.784;2022-09-09T17:29:06;96157.53;;;18.47
73894;BMP280;62699;50.534;12.784;2022-09-09T17:34:25;96163.25;;;18.66
73894;BMP280;62699;50.534;12.784;2022-09-09T17:39:45;96156.88;;;18.24
73894;BMP280;62699;50.534;12.784;2022-09-09T17:45:04;96163.84;;;18.02
73894;BMP280;62699;50.534;12.784;2022-09-09T17:50:24;96163.53;;;17.91
73894;BMP280;62699;50.534;12.784;2022-09-09T17:55:43;96164.06;;;17.97
73894;BMP280;62699;50.534;12.784;2022-09-09T18:01:11;96169.38;;;17.49
73894;BMP280;62699;50.534;12.784;2022-09-09T18:06:44;96160.66;;;17.20
73894;BMP280;62699;50.534;12.784;2022-09-09T18:12:04;96155.94;;;16.91
73894;BMP280;62699;50.534;12.784;2022-09-09T18:17:23;96166.13;;;17.13
73894;BMP280;62699;50.534;12.784;2022-09-09T18:22:44;96165.22;;;17.18
73894;BMP280;62699;50.534;12.784;2022-09-09T18:28:02;96176.66;;;17.16
73894;BMP280;62699;50.534;12.784;2022-09-09T18:33:23;96171.34;;;16.96
73894;BMP280;62699;50.534;12.784;2022-09-09T18:38:42;96164.94;;;16.63
73894;BMP280;62699;50.534;12.784;2022-09-09T18:44:05;96170.06;;;16.82
73894;BMP280;62699;50.534;12.784;2022-09-09T18:49:25;96177.91;;;16.42
73894;BMP280;62699;50.534;12.784;2022-09-09T18:54:45;96174.38;;;16.26
73894;BMP280;62699;50.534;12.784;2022-09-09T19:00:06;96184.53;;;15.97
73894;BMP280;62699;50.534;12.784;2022-09-09T19:05:27;96192.28;;;15.44
73894;BMP280;62699;50.534;12.784;2022-09-09T19:10:49;96197.00;;;15.44
73894;BMP280;62699;50.534;12.784;2022-09-09T19:16:13;96203.97;;;15.81
73894;BMP280;62699;50.534;12.784;2022-09-09T19:21:34;96212.69;;;15.87
73894;BMP280;62699;50.534;12.784;2022-09-09T19:26:57;96209.22;;;16.35
73894;BMP280;62699;50.534;12.784;2022-09-09T19:32:19;96213.09;;;16.19
73894;BMP280;62699;50.534;12.784;2022-09-09T19:37:39;96205.81;;;16.42
73894;BMP280;62699;50.534;12.784;2022-09-09T19:42:59;96211.69;;;15.97
73894;BMP280;62699;50.534;12.784;2022-09-09T19:48:19;96208.41;;;15.91
73894;BMP280;62699;50.534;12.784;2022-09-09T19:53:43;96215.06;;;15.62
73894;BMP280;62699;50.534;12.784;2022-09-09T19:59:05;96228.28;;;15.45
73894;BMP280;62699;50.534;12.784;2022-09-09T20:04:24;96232.78;;;15.42
73894;BMP280;62699;50.534;12.784;2022-09-09T20:09:45;96234.78;;;15.42
73894;BMP280;62699;50.534;12.784;2022-09-09T20:15:03;96238.69;;;15.33
73894;BMP280;62699;50.534;12.784;2022-09-09T20:20:24;96233.81;;;15.18
73894;BMP280;62699;50.534;12.784;2022-09-09T20:25:42;96241.22;;;15.18
73894;BMP280;62699;50.534;12.784;2022-09-09T20:31:08;96247.09;;;15.43
73894;BMP280;62699;50.534;12.784;2022-09-09T20:36:29;96244.03;;;15.46
73894;BMP280;62699;50.534;12.784;2022-09-09T20:41:51;96254.28;;;15.40
73894;BMP280;62699;50.534;12.784;2022-09-09T20:47:10;96253.00;;;15.20
73894;BMP280;62699;50.534;12.784;2022-09-09T20:52:30;96253.38;;;15.58
73894;BMP280;62699;50.534;12.784;2022-09-09T20:57:49;96248.75;;;15.66
73894;BMP280;62699;50.534;12.784;2022-09-09T21:03:10;96255.31;;;15.50
73894;BMP280;62699;50.534;12.784;2022-09-09T21:08:29;96252.94;;;15.13
73894;BMP280;62699;50.534;12.784;2022-09-09T21:13:49;96246.06;;;15.12
73894;BMP280;62699;50.534;12.784;2022-09-09T21:19:09;96221.44;;;15.10
73894;BMP280;62699;50.534;12.784;2022-09-09T21:24:29;96239.31;;;15.26
73894;BMP280;62699;50.534;12.784;2022-09-09T21:29:48;96235.59;;;15.16
73894;BMP280;62699;50.534;12.784;2022-09-09T21:35:08;96236.56;;;15.05
73894;BMP280;62699;50.534;12.784;2022-09-09T21:40:29;96239.69;;;15.09
73894;BMP280;62699;50.534;12.784;2022-09-09T21:45:49;96234.88;;;15.15
73894;BMP280;62699;50.534;12.784;2022-09-09T21:51:09;96235.22;;;15.12
73894;BMP280;62699;50.534;12.784;2022-09-09T21:56:29;96240.28;;;15.15
73894;BMP280;62699;50.534;12.784;2022-09-09T22:01:47;96235.84;;;15.05
73894;BMP280;62699;50.534;12.784;2022-09-09T22:07:07;96240.53;;;14.70
73894;BMP280;62699;50.534;12.784;2022-09-09T22:12:27;96228.84;;;14.49
73894;BMP280;62699;50.534;12.784;2022-09-09T22:17:45;96241.13;;;14.63
73894;BMP280;62699;50.534;12.784;2022-09-09T22:23:05;96234.69;;;14.40
73894;BMP280;62699;50.534;12.784;2022-09-09T22:28:27;96223.44;;;14.62
73894;BMP280;62699;50.534;12.784;2022-09-09T22:33:48;96236.00;;;14.86
73894;BMP280;62699;50.534;12.784;2022-09-09T22:39:07;96241.03;;;14.82
73894;BMP280;62699;50.534;12.784;2022-09-09T22:44:26;96242.50;;;14.70
73894;BMP280;62699;50.534;12.784;2022-09-09T22:49:46;96228.22;;;14.56
73894;BMP280;62699;50.534;12.784;2022-09-09T22:55:05;96230.94;;;14.17
73894;BMP280;62699;50.534;12.784;2022-09-09T23:00:25;96233.97;;;14.40
73894;BMP280;62699;50.534;12.784;2022-09-09T23:05:52;96236.34;;;14.56
73894;BMP280;62699;50.534;12.784;2022-09-09T23:11:13;96243.84;;;14.63
73894;BMP280;62699;50.534;12.784;2022-09-09T23:16:36;96239.69;;;14.49
73894;BMP280;62699;50.534;12.784;2022-09-09T23:21:58;96230.13;;;14.22
73894;BMP280;62699;50.534;12.784;2022-09-09T23:27:19;96232.69;;;14.14
73894;BMP280;62699;50.534;12.784;2022-09-09T23:32:40;96235.28;;;14.07
73894;BMP280;62699;50.534;12.784;2022-09-09T23:38:00;96220.53;;;14.21
73894;BMP280;62699;50.534;12.784;2022-09-09T23:43:21;96216.06;;;13.65
73894;BMP280;62699;50.534;12.784;2022-09-09T23:48:42;96219.47;;;13.34
73894;BMP280;62699;50.534;12.784;2022-09-09T23:54:03;96202.66;;;13.09
73894;BMP280;62699;50.534;12.784;2022-09-09T23:59:23;96213.69;;;13.43
